createdAt,value
2018-11-02T00:00:44.075Z,90.40
2018-11-02T00:03:13.838Z,90.50
2018-11-02T00:05:43.583Z,90.60
2018-11-02T00:08:13.423Z,90.70
2018-11-02T00:10:43.193Z,90.90
2018-11-02T00:13:12.883Z,90.90
2018-11-02T00:15:42.771Z,91.00
2018-11-02T00:18:12.505Z,91.10
2018-11-02T00:20:42.399Z,91.20
2018-11-02T00:23:12.048Z,91.50
2018-11-02T00:25:41.812Z,92.70
2018-11-02T00:28:11.575Z,93.00
2018-11-02T00:30:41.383Z,93.00
2018-11-02T00:33:11.108Z,93.10
2018-11-02T00:35:40.769Z,93.50
2018-11-02T00:38:10.464Z,93.70
2018-11-02T00:40:40.017Z,93.70
2018-11-02T00:43:09.781Z,94.50
2018-11-02T00:45:39.539Z,94.60
2018-11-02T00:48:09.215Z,95.30
2018-11-02T00:50:38.956Z,95.40
2018-11-02T00:53:08.635Z,94.20
2018-11-02T00:55:38.535Z,95.00
2018-11-02T00:58:08.209Z,95.60
2018-11-02T01:00:38.056Z,95.10
2018-11-02T01:03:08.100Z,94.90
2018-11-02T01:05:37.888Z,94.90
2018-11-02T01:08:07.623Z,95.40
2018-11-02T01:10:37.407Z,95.90
2018-11-02T01:13:07.140Z,95.80
2018-11-02T01:15:36.936Z,96.10
2018-11-02T01:18:07.091Z,95.30
2018-11-02T01:20:36.763Z,96.20
2018-11-02T01:23:06.775Z,95.50
2018-11-02T01:25:36.540Z,96.00
2018-11-02T01:28:06.242Z,96.70
2018-11-02T01:30:35.908Z,96.50
2018-11-02T01:33:05.680Z,96.60
2018-11-02T01:35:35.412Z,96.60
2018-11-02T01:38:05.292Z,96.20
2018-11-02T01:40:35.064Z,96.30
2018-11-02T01:43:04.723Z,96.60
2018-11-02T01:45:34.434Z,97.00
2018-11-02T01:48:04.182Z,95.90
2018-11-02T01:50:33.934Z,96.50
2018-11-02T01:53:03.541Z,96.50
2018-11-02T01:55:33.255Z,96.50
2018-11-02T01:58:02.966Z,96.50
2018-11-02T02:00:32.652Z,96.80
2018-11-02T02:03:02.402Z,96.20
2018-11-02T02:05:32.152Z,96.30
2018-11-02T02:08:01.867Z,96.50
2018-11-02T02:10:31.636Z,96.60
2018-11-02T02:13:01.420Z,97.10
2018-11-02T02:15:31.039Z,97.00
2018-11-02T02:18:00.788Z,96.70
2018-11-02T02:20:30.363Z,97.30
2018-11-02T02:23:00.168Z,97.20
2018-11-02T02:25:29.938Z,97.00
2018-11-02T02:27:59.587Z,96.40
2018-11-02T02:30:29.395Z,97.20
2018-11-02T02:32:59.007Z,97.00
2018-11-02T02:35:28.699Z,97.20
2018-11-02T02:37:58.516Z,97.10
2018-11-02T02:40:28.135Z,97.10
2018-11-02T02:42:57.820Z,97.70
2018-11-02T02:45:27.493Z,97.00
2018-11-02T02:47:57.380Z,97.80
2018-11-02T02:50:29.197Z,97.80
2018-11-02T02:53:01.266Z,97.80
2018-11-02T02:55:33.541Z,97.80
2018-11-02T02:58:03.127Z,97.30
2018-11-02T03:00:32.783Z,97.30
2018-11-02T03:03:02.376Z,97.60
2018-11-02T03:05:32.157Z,98.00
2018-11-02T03:08:01.775Z,97.50
2018-11-02T03:10:31.509Z,97.40
2018-11-02T03:13:01.227Z,97.60
2018-11-02T03:15:30.923Z,97.50
2018-11-02T03:18:00.644Z,97.90
2018-11-02T03:20:30.360Z,97.20
2018-11-02T03:23:00.139Z,98.00
2018-11-02T03:25:29.780Z,98.30
2018-11-02T03:27:59.599Z,97.70
2018-11-02T03:30:29.544Z,97.80
2018-11-02T03:32:59.085Z,97.60
2018-11-02T03:35:28.722Z,97.60
2018-11-02T03:47:54.608Z,97.50
2018-11-02T03:50:24.672Z,97.90
2018-11-02T03:52:54.352Z,97.10
2018-11-02T03:55:24.200Z,97.30
2018-11-02T03:57:53.975Z,96.70
2018-11-02T04:00:23.914Z,97.00
2018-11-02T04:02:53.673Z,98.10
2018-11-02T04:05:23.456Z,97.90
2018-11-02T04:07:53.124Z,97.40
2018-11-02T04:10:22.777Z,97.60
2018-11-02T04:12:52.589Z,98.20
2018-11-02T04:15:22.296Z,98.00
2018-11-02T04:17:51.841Z,98.00
2018-11-02T04:20:21.542Z,97.90
2018-11-02T04:22:51.228Z,97.60
2018-11-02T04:25:20.988Z,98.10
2018-11-02T04:27:50.744Z,97.70
2018-11-02T04:30:20.396Z,97.70
2018-11-02T04:32:50.107Z,97.70
2018-11-02T04:35:19.972Z,98.30
2018-11-02T04:37:49.728Z,97.80
2018-11-02T04:40:19.517Z,97.90
2018-11-02T04:42:49.148Z,97.80
2018-11-02T04:45:23.075Z,98.40
2018-11-02T04:47:52.760Z,97.60
2018-11-02T04:50:22.545Z,98.00
2018-11-02T04:52:52.308Z,98.30
2018-11-02T04:55:21.896Z,97.70
2018-11-02T04:57:51.712Z,98.90
2018-11-02T05:00:21.498Z,98.60
2018-11-02T05:02:51.293Z,97.70
2018-11-02T05:05:20.929Z,98.30
2018-11-02T05:07:50.720Z,97.80
2018-11-02T05:10:20.363Z,98.10
2018-11-02T05:12:50.133Z,98.00
2018-11-02T05:15:19.895Z,98.50
2018-11-02T05:17:49.709Z,98.60
2018-11-02T05:20:19.413Z,98.70
2018-11-02T05:22:49.133Z,98.80
2018-11-02T05:25:19.038Z,97.80
2018-11-02T05:27:48.758Z,97.70
2018-11-02T05:30:18.609Z,98.40
2018-11-02T05:32:48.381Z,98.20
2018-11-02T05:35:18.242Z,98.20
2018-11-02T05:37:47.869Z,97.70
2018-11-02T05:40:17.756Z,98.20
2018-11-02T05:42:47.497Z,98.60
2018-11-02T05:45:17.290Z,98.00
2018-11-02T05:47:47.042Z,98.60
2018-11-02T05:50:16.806Z,97.40
2018-11-02T05:52:46.764Z,98.60
2018-11-02T05:55:16.586Z,97.90
2018-11-02T05:57:46.180Z,98.10
2018-11-02T06:00:15.904Z,98.50
2018-11-02T06:02:45.605Z,97.10
2018-11-02T06:05:15.304Z,98.00
2018-11-02T06:07:45.158Z,97.30
2018-11-02T06:10:14.850Z,97.60
2018-11-02T06:12:44.508Z,97.80
2018-11-02T06:15:14.268Z,97.50
2018-11-02T06:17:43.944Z,97.30
2018-11-02T06:20:13.625Z,97.80
2018-11-02T06:22:43.395Z,97.70
2018-11-02T06:25:13.149Z,97.80
2018-11-02T06:27:42.909Z,97.30
2018-11-02T06:30:12.672Z,97.50
2018-11-02T06:32:42.427Z,97.60
2018-11-02T06:35:12.139Z,97.60
2018-11-02T06:37:41.906Z,97.30
2018-11-02T06:40:11.772Z,97.60
2018-11-02T06:42:41.559Z,97.50
2018-11-02T06:45:11.883Z,97.30
2018-11-02T06:47:41.504Z,97.90
2018-11-02T06:50:11.360Z,98.50
2018-11-02T06:52:41.133Z,98.00
2018-11-02T06:55:11.046Z,98.10
2018-11-02T06:57:40.729Z,97.90
2018-11-02T07:00:12.460Z,98.20
2018-11-02T07:02:42.298Z,97.40
2018-11-02T07:05:12.029Z,97.60
2018-11-02T07:07:44.554Z,96.90
2018-11-02T07:10:14.008Z,97.30
2018-11-02T07:12:44.955Z,98.00
2018-11-02T07:15:14.752Z,97.50
2018-11-02T07:17:44.479Z,96.70
2018-11-02T07:20:13.976Z,95.80
2018-11-02T07:22:43.552Z,95.90
2018-11-02T07:25:13.255Z,96.10
2018-11-02T07:27:42.915Z,96.60
2018-11-02T07:30:12.910Z,96.20
2018-11-02T07:32:42.389Z,96.40
2018-11-02T07:35:12.095Z,96.20
2018-11-02T07:37:41.523Z,96.00
2018-11-02T07:40:27.884Z,95.70
2018-11-02T07:42:57.504Z,95.80
2018-11-02T07:45:27.064Z,95.10
2018-11-02T07:47:56.673Z,96.00
2018-11-02T07:55:24.199Z,95.00
2018-11-02T07:57:53.726Z,94.20
2018-11-02T08:00:23.265Z,91.70
2018-11-02T08:02:52.665Z,91.30
2018-11-02T08:05:22.221Z,86.40
2018-11-02T08:07:51.831Z,84.40
2018-11-02T08:10:21.375Z,84.80
2018-11-02T08:12:50.736Z,84.00
2018-11-02T08:15:20.292Z,89.00
2018-11-02T08:17:49.951Z,89.10
2018-11-02T08:20:19.468Z,89.30
2018-11-02T08:22:49.072Z,90.20
2018-11-02T08:25:18.620Z,91.50
2018-11-02T08:27:48.116Z,91.30
2018-11-02T08:30:17.717Z,91.20
2018-11-02T08:32:47.504Z,91.90
2018-11-02T08:35:17.009Z,92.50
2018-11-02T08:37:46.243Z,91.50
2018-11-02T08:40:15.545Z,91.70
2018-11-02T08:42:44.884Z,92.10
2018-11-02T08:45:14.169Z,89.90
2018-11-02T08:47:43.622Z,91.00
2018-11-02T08:50:13.446Z,90.50
2018-11-02T08:52:42.893Z,89.70
2018-11-02T08:55:12.455Z,89.80
2018-11-02T08:57:41.884Z,90.50
2018-11-02T09:00:12.495Z,91.60
2018-11-02T09:02:42.376Z,90.40
2018-11-02T09:05:12.028Z,89.30
2018-11-02T09:07:41.384Z,90.20
2018-11-02T09:10:12.287Z,91.30
2018-11-02T09:12:41.694Z,90.50
2018-11-02T09:15:11.391Z,91.40
2018-11-02T09:17:40.828Z,90.80
2018-11-02T09:20:10.424Z,91.00
2018-11-02T09:22:40.237Z,91.00
2018-11-02T09:25:10.652Z,90.90
2018-11-02T09:27:40.065Z,90.90
2018-11-02T09:30:12.072Z,90.50
2018-11-02T09:32:41.444Z,90.10
2018-11-02T09:35:10.864Z,90.00
2018-11-02T09:37:40.373Z,89.10
2018-11-02T09:40:11.471Z,90.00
2018-11-02T09:42:40.955Z,90.30
2018-11-02T09:45:12.665Z,88.10
2018-11-02T09:47:42.353Z,87.70
2018-11-02T09:50:12.253Z,88.90
2018-11-02T09:52:41.744Z,87.30
2018-11-02T09:55:13.153Z,87.50
2018-11-02T09:57:43.088Z,87.90
2018-11-02T10:00:13.380Z,87.00
2018-11-02T10:02:42.837Z,86.90
2018-11-02T10:05:12.998Z,87.60
2018-11-02T10:07:42.877Z,87.20
2018-11-02T10:10:13.018Z,88.10
2018-11-02T10:12:42.456Z,90.20
2018-11-02T10:15:15.754Z,88.10
2018-11-02T10:17:45.407Z,87.60
2018-11-02T10:20:14.825Z,87.80
2018-11-02T10:22:44.240Z,87.80
2018-11-02T10:25:13.712Z,88.60
2018-11-02T10:27:44.091Z,88.80
2018-11-02T10:30:14.613Z,89.20
2018-11-02T10:32:46.938Z,89.50
2018-11-02T10:35:16.426Z,90.30
2018-11-02T10:37:46.209Z,90.50
2018-11-02T10:40:16.983Z,91.20
2018-11-02T10:42:50.420Z,91.00
2018-11-02T10:45:20.139Z,90.50
2018-11-02T10:47:49.825Z,88.60
2018-11-02T10:50:19.231Z,88.60
2018-11-02T10:52:48.628Z,87.00
2018-11-02T10:55:20.811Z,88.60
2018-11-02T10:57:50.196Z,89.80
2018-11-02T11:00:24.521Z,88.70
2018-11-02T11:02:53.916Z,90.40
2018-11-02T11:05:23.424Z,91.60
2018-11-02T11:07:52.764Z,90.90
2018-11-02T11:10:22.171Z,88.70
2018-11-02T11:12:51.716Z,89.60
2018-11-02T11:15:21.017Z,89.50
2018-11-02T11:17:50.485Z,90.20
2018-11-02T11:20:19.885Z,91.50
2018-11-02T11:22:49.324Z,91.50
2018-11-02T11:25:18.727Z,89.80
2018-11-02T11:27:48.199Z,89.50
2018-11-02T11:30:18.757Z,91.00
2018-11-02T11:32:48.987Z,91.30
2018-11-02T11:35:19.101Z,90.60
2018-11-02T11:37:48.576Z,90.30
2018-11-02T11:40:19.439Z,91.70
2018-11-02T11:42:48.887Z,92.50
2018-11-02T11:45:19.309Z,91.20
2018-11-02T11:47:48.795Z,91.40
2018-11-02T11:50:20.888Z,91.70
2018-11-02T11:52:51.430Z,92.60
2018-11-02T11:55:20.976Z,92.40
2018-11-02T11:57:50.421Z,92.70
2018-11-02T12:00:21.287Z,92.50
2018-11-02T12:02:51.321Z,92.30
2018-11-02T12:05:22.005Z,92.30
2018-11-02T12:07:51.428Z,92.30
2018-11-02T12:10:22.233Z,90.80
2018-11-02T12:12:51.618Z,90.90
2018-11-02T12:15:22.076Z,91.90
2018-11-02T12:17:51.920Z,90.20
2018-11-02T12:20:22.735Z,91.70
2018-11-02T12:22:53.424Z,92.10
2018-11-02T12:25:22.838Z,92.80
2018-11-02T12:27:52.286Z,91.20
2018-11-02T12:30:21.668Z,91.30
2018-11-02T12:32:51.063Z,89.00
2018-11-02T12:35:20.899Z,91.00
2018-11-02T12:37:50.294Z,91.40
2018-11-02T12:40:20.976Z,91.20
2018-11-02T12:42:51.602Z,91.70
2018-11-02T12:45:21.689Z,91.40
2018-11-02T12:47:51.344Z,91.90
2018-11-02T12:50:24.003Z,91.10
2018-11-02T12:52:54.502Z,91.00
2018-11-02T12:55:24.148Z,91.50
2018-11-02T12:57:53.651Z,91.00
2018-11-02T13:00:24.442Z,91.90
2018-11-02T13:02:54.609Z,93.00
2018-11-02T13:05:24.193Z,92.00
2018-11-02T13:07:53.788Z,93.10
2018-11-02T13:10:24.056Z,92.10
2018-11-02T13:12:53.605Z,92.10
2018-11-02T13:15:23.981Z,92.90
2018-11-02T13:17:53.462Z,93.30
2018-11-02T13:20:22.882Z,93.70
2018-11-02T13:22:52.472Z,93.80
2018-11-02T13:25:22.758Z,94.20
2018-11-02T13:27:52.533Z,94.50
2018-11-02T13:30:22.385Z,94.90
2018-11-02T13:32:51.737Z,94.80
2018-11-02T13:35:21.279Z,94.60
2018-11-02T13:37:51.170Z,94.70
2018-11-02T13:40:20.853Z,95.10
2018-11-02T13:42:50.297Z,95.80
2018-11-02T13:45:20.346Z,95.70
2018-11-02T13:47:49.848Z,96.00
2018-11-02T13:50:19.595Z,96.00
2018-11-02T13:52:48.920Z,95.80
2018-11-02T13:55:18.309Z,95.60
2018-11-02T13:57:47.900Z,95.80
2018-11-02T14:00:18.274Z,96.10
2018-11-02T14:02:47.684Z,95.90
2018-11-02T14:05:18.294Z,96.00
2018-11-02T14:07:47.688Z,96.20
2018-11-02T14:10:17.339Z,96.40
2018-11-02T14:12:46.741Z,96.20
2018-11-02T14:15:16.854Z,96.60
2018-11-02T14:17:46.617Z,96.60
2018-11-02T14:20:16.272Z,96.70
2018-11-02T14:22:46.364Z,96.70
2018-11-02T14:25:17.117Z,96.90
2018-11-02T14:27:46.726Z,96.90
2018-11-02T14:30:17.221Z,97.00
2018-11-02T14:32:47.436Z,97.30
2018-11-02T14:35:16.957Z,97.20
2018-11-02T14:37:46.656Z,97.60
2018-11-02T14:40:16.237Z,97.80
2018-11-02T14:42:45.752Z,97.70
2018-11-02T14:45:16.092Z,97.90
2018-11-02T14:47:46.870Z,98.10
2018-11-02T14:50:16.263Z,97.90
2018-11-02T14:52:45.698Z,97.90
2018-11-02T14:55:15.080Z,98.30
2018-11-02T14:57:44.472Z,98.10
2018-11-02T15:00:13.854Z,98.10
2018-11-02T15:02:43.488Z,98.70
2018-11-02T15:05:13.749Z,98.50
2018-11-02T15:07:43.688Z,98.70
2018-11-02T15:10:13.077Z,98.50
2018-11-02T15:12:42.673Z,98.50
2018-11-02T15:15:12.227Z,98.50
2018-11-02T15:17:41.646Z,98.80
2018-11-02T15:20:13.173Z,99.30
2018-11-02T15:22:42.732Z,98.90
2018-11-02T15:25:12.128Z,99.20
2018-11-02T15:27:41.505Z,99.30
2018-11-02T15:30:12.576Z,99.30
2018-11-02T15:32:42.845Z,99.40
2018-11-02T15:35:12.661Z,99.40
2018-11-02T15:37:42.470Z,99.60
2018-11-02T15:40:13.005Z,99.50
2018-11-02T15:42:43.133Z,99.40
2018-11-02T15:45:13.867Z,99.60
2018-11-02T15:47:44.144Z,99.60
2018-11-02T15:50:13.831Z,99.20
2018-11-02T15:52:43.220Z,99.80
2018-11-02T15:55:12.981Z,99.50
2018-11-02T15:57:42.676Z,99.30
2018-11-02T16:00:17.616Z,99.60
2018-11-02T16:02:48.542Z,99.60
2018-11-02T16:05:18.292Z,99.90
2018-11-02T16:07:47.680Z,99.60
2018-11-02T16:10:16.600Z,99.60
2018-11-02T16:12:46.069Z,99.90
2018-11-02T16:15:15.444Z,99.60
2018-11-02T16:17:45.022Z,99.70
2018-11-02T16:20:15.580Z,99.90
2018-11-02T16:22:45.512Z,99.70
2018-11-02T16:25:15.014Z,99.70
2018-11-02T16:27:44.470Z,99.70
2018-11-02T16:30:13.994Z,99.90
2018-11-02T16:32:43.251Z,99.90
2018-11-02T16:35:12.734Z,99.90
2018-11-02T16:37:42.419Z,99.90
2018-11-02T16:40:13.801Z,99.90
2018-11-02T16:42:44.102Z,99.90
2018-11-02T16:45:14.564Z,99.90
2018-11-02T16:47:44.524Z,99.90
2018-11-02T16:50:15.115Z,99.90
2018-11-02T16:52:45.058Z,99.90
2018-11-02T16:55:14.718Z,99.90
2018-11-02T16:57:44.439Z,99.90
2018-11-02T17:00:19.065Z,99.90
2018-11-02T17:02:49.252Z,99.90
2018-11-02T17:05:19.228Z,99.90
2018-11-02T17:07:48.732Z,99.90
2018-11-02T17:10:18.484Z,99.90
2018-11-02T17:12:47.910Z,99.90
2018-11-02T17:15:17.600Z,99.90
2018-11-02T17:17:47.275Z,99.90
2018-11-02T17:20:18.678Z,99.90
2018-11-02T17:22:48.436Z,99.90
2018-11-02T17:25:17.829Z,99.90
2018-11-02T17:27:47.236Z,99.90
2018-11-02T17:30:18.192Z,99.90
2018-11-02T17:32:47.581Z,99.90
2018-11-02T17:35:16.972Z,99.90
2018-11-02T17:37:47.821Z,99.90
2018-11-02T17:40:17.249Z,99.90
2018-11-02T17:42:46.659Z,99.90
2018-11-02T17:45:16.131Z,99.90
2018-11-02T17:47:45.917Z,99.90
2018-11-02T17:50:16.020Z,99.90
2018-11-02T17:52:45.675Z,99.90
2018-11-02T17:55:15.077Z,99.90
2018-11-02T17:57:44.472Z,99.90
2018-11-02T18:00:14.580Z,99.90
2018-11-02T18:02:44.044Z,99.90
2018-11-02T18:05:13.492Z,99.90
2018-11-02T18:07:43.057Z,99.90
2018-11-02T18:10:13.526Z,99.90
2018-11-02T18:12:43.191Z,99.90
2018-11-02T18:15:13.397Z,99.90
2018-11-02T18:17:42.804Z,99.90
2018-11-02T18:20:14.817Z,99.90
2018-11-02T18:22:44.285Z,99.90
2018-11-02T18:25:13.759Z,99.90
2018-11-02T18:27:43.812Z,99.90
2018-11-02T18:30:13.559Z,99.90
2018-11-02T18:32:42.960Z,99.90
2018-11-02T18:35:12.367Z,99.90
2018-11-02T18:37:41.803Z,99.90
2018-11-02T18:40:12.833Z,99.90
2018-11-02T18:42:42.541Z,99.90
2018-11-02T18:45:14.077Z,99.90
2018-11-02T18:47:47.655Z,99.90
2018-11-02T18:50:19.048Z,99.90
2018-11-02T18:52:48.886Z,99.90
2018-11-02T18:55:18.856Z,99.90
2018-11-02T18:57:48.459Z,99.90
2018-11-02T19:00:18.114Z,99.90
2018-11-02T19:02:47.515Z,99.90
2018-11-02T19:05:17.997Z,99.90
2018-11-02T19:07:47.372Z,99.90
2018-11-02T19:10:16.801Z,99.90
2018-11-02T19:12:46.198Z,99.90
2018-11-02T19:15:16.929Z,99.90
2018-11-02T19:17:46.357Z,99.90
2018-11-02T19:20:16.102Z,99.90
2018-11-02T19:22:45.624Z,99.90
2018-11-02T19:25:15.941Z,99.90
2018-11-02T19:27:45.973Z,99.90
2018-11-02T19:30:15.932Z,99.90
2018-11-02T19:32:45.383Z,99.90
2018-11-02T19:35:15.320Z,99.90
2018-11-02T19:37:44.829Z,99.90
2018-11-02T19:40:15.272Z,99.90
2018-11-02T19:42:44.725Z,99.90
2018-11-02T19:45:14.416Z,99.90
2018-11-02T19:47:48.898Z,99.90
2018-11-02T19:50:19.130Z,99.90
2018-11-02T19:52:48.544Z,99.90
2018-11-02T19:55:18.043Z,99.90
2018-11-02T19:57:47.487Z,99.90
2018-11-02T20:00:17.494Z,99.90
2018-11-02T20:02:46.888Z,99.90
2018-11-02T20:05:18.660Z,99.90
2018-11-02T20:07:48.056Z,99.90
2018-11-02T20:10:18.153Z,99.90
2018-11-02T20:12:48.161Z,99.90
2018-11-02T20:15:17.957Z,99.90
2018-11-02T20:17:47.428Z,99.90
2018-11-02T20:20:17.464Z,99.90
2018-11-02T20:22:46.872Z,99.90
2018-11-02T20:25:17.418Z,99.90
2018-11-02T20:27:46.850Z,99.90
2018-11-02T20:30:18.892Z,99.90
2018-11-02T20:32:48.281Z,99.90
2018-11-02T20:35:17.680Z,99.90
2018-11-02T20:37:48.052Z,99.90
2018-11-02T20:40:18.734Z,99.90
2018-11-02T20:42:48.161Z,99.90
2018-11-02T20:45:17.798Z,99.90
2018-11-02T20:47:47.225Z,99.90
2018-11-02T20:50:17.835Z,99.90
2018-11-02T20:52:47.420Z,99.90
2018-11-02T20:55:17.190Z,99.90
2018-11-02T20:57:46.604Z,99.90
2018-11-02T21:00:17.240Z,99.90
2018-11-02T21:02:46.700Z,99.90
2018-11-02T21:05:17.190Z,99.90
2018-11-02T21:07:47.073Z,99.90
2018-11-02T21:10:17.597Z,99.90
2018-11-02T21:12:47.121Z,99.90
2018-11-02T21:15:18.531Z,99.90
2018-11-02T21:17:48.247Z,99.90
2018-11-02T21:20:18.898Z,99.90
2018-11-02T21:22:48.570Z,99.90
2018-11-02T21:25:18.016Z,99.90
2018-11-02T21:27:47.853Z,99.90
2018-11-02T21:30:19.590Z,99.90
2018-11-02T21:32:49.671Z,99.90
2018-11-02T21:35:19.674Z,99.90
2018-11-02T21:37:49.492Z,99.90
2018-11-02T21:40:20.198Z,99.90
2018-11-02T21:42:49.603Z,99.90
2018-11-02T21:45:21.056Z,99.90
2018-11-02T21:47:50.606Z,99.90
2018-11-02T21:50:20.189Z,99.90
2018-11-02T21:52:49.585Z,99.90
2018-11-02T21:55:19.013Z,99.90
2018-11-02T21:57:48.435Z,99.90
2018-11-02T22:00:20.176Z,99.90
2018-11-02T22:02:49.671Z,99.90
2018-11-02T22:05:19.114Z,99.90
2018-11-02T22:07:49.459Z,99.90
2018-11-02T22:10:19.064Z,99.90
2018-11-02T22:12:48.502Z,99.90
2018-11-02T22:15:17.917Z,99.90
2018-11-02T22:17:47.309Z,99.90
2018-11-02T22:20:17.017Z,99.90
2018-11-02T22:22:46.459Z,99.90
2018-11-02T22:25:16.210Z,99.90
2018-11-02T22:27:45.841Z,99.90
2018-11-02T22:30:16.636Z,99.90
2018-11-02T22:32:46.144Z,99.90
2018-11-02T22:35:16.093Z,99.90
2018-11-02T22:37:45.990Z,99.90
2018-11-02T22:40:15.667Z,99.90
2018-11-02T22:42:45.217Z,99.90
2018-11-02T22:45:15.445Z,99.90
2018-11-02T22:47:49.916Z,99.90
2018-11-02T22:50:19.360Z,99.90
2018-11-02T22:52:48.740Z,99.90
2018-11-02T22:55:18.747Z,99.90
2018-11-02T22:57:48.181Z,99.90
2018-11-02T23:00:18.794Z,99.90
2018-11-02T23:02:49.217Z,99.90
2018-11-02T23:05:18.932Z,99.90
2018-11-02T23:07:48.755Z,99.90
2018-11-02T23:10:18.632Z,99.90
2018-11-02T23:12:48.224Z,99.90
2018-11-02T23:15:17.989Z,99.90
2018-11-02T23:17:47.912Z,99.90
2018-11-02T23:20:17.703Z,99.90
2018-11-02T23:22:47.472Z,99.90
2018-11-02T23:25:17.216Z,99.90
2018-11-02T23:27:47.069Z,99.90
2018-11-02T23:30:16.981Z,99.90
2018-11-02T23:32:46.630Z,99.90
2018-11-02T23:35:16.476Z,99.90
2018-11-02T23:37:46.344Z,99.90
2018-11-02T23:40:16.084Z,99.90
2018-11-02T23:42:45.876Z,99.90
2018-11-02T23:45:15.525Z,99.90
2018-11-02T23:47:50.303Z,99.90
2018-11-02T23:50:19.962Z,99.90
2018-11-02T23:52:49.730Z,99.90
2018-11-02T23:55:19.389Z,99.90
2018-11-02T23:57:49.077Z,99.90
